sensor_id;sensor_type;location;lat;lon;timestamp;pressure;altitude;pressure_sealevel;temperature;humidity
7018;BME280;3549;42.162;24.726;2023-04-15T00:01:06;47601.72;;;-141.97;76.98
7018;BME280;3549;42.162;24.726;2023-04-15T00:03:32;47599.81;;;-141.97;77.61
7018;BME280;3549;42.162;24.726;2023-04-15T00:05:58;47601.72;;;-141.97;78.23
7018;BME280;3549;42.162;24.726;2023-04-15T00:08:24;47628.63;;;-141.97;77.82
7018;BME280;3549;42.162;24.726;2023-04-15T00:10:49;47603.66;;;-141.97;77.58
7018;BME280;3549;42.162;24.726;2023-04-15T00:13:15;47595.97;;;-141.97;77.00
7018;BME280;3549;42.162;24.726;2023-04-15T00:15:40;47594.03;;;-141.97;76.30
7018;BME280;3549;42.162;24.726;2023-04-15T00:18:06;47619.03;;;-141.97;77.37
7018;BME280;3549;42.162;24.726;2023-04-15T00:20:32;47615.19;;;-141.97;77.22
7018;BME280;3549;42.162;24.726;2023-04-15T00:22:58;47622.88;;;-141.97;77.23
7018;BME280;3549;42.162;24.726;2023-04-15T00:25:24;47617.09;;;-141.97;77.28
7018;BME280;3549;42.162;24.726;2023-04-15T00:27:50;47603.66;;;-141.97;78.16
7018;BME280;3549;42.162;24.726;2023-04-15T00:30:15;47619.03;;;-141.97;78.08
7018;BME280;3549;42.162;24.726;2023-04-15T00:32:41;47586.34;;;-141.97;78.28
7018;BME280;3549;42.162;24.726;2023-04-15T00:35:07;47607.50;;;-141.97;78.88
7018;BME280;3549;42.162;24.726;2023-04-15T00:37:33;47572.91;;;-141.97;79.49
7018;BME280;3549;42.162;24.726;2023-04-15T00:39:59;47632.47;;;-141.97;79.73
7018;BME280;3549;42.162;24.726;2023-04-15T00:42:26;47555.59;;;-141.97;80.90
7018;BME280;3549;42.162;24.726;2023-04-15T00:44:52;47653.63;;;-141.97;82.33
7018;BME280;3549;42.162;24.726;2023-04-15T00:47:17;47657.47;;;-141.97;82.78
7018;BME280;3549;42.162;24.726;2023-04-15T00:49:43;47613.25;;;-141.97;82.92
7018;BME280;3549;42.162;24.726;2023-04-15T00:52:08;47692.06;;;-141.97;81.83
7018;BME280;3549;42.162;24.726;2023-04-15T00:54:34;47613.25;;;-141.97;81.11
7018;BME280;3549;42.162;24.726;2023-04-15T00:57:00;47717.06;;;-141.97;81.33
7018;BME280;3549;42.162;24.726;2023-04-15T00:59:25;47613.25;;;-141.97;82.15
7018;BME280;3549;42.162;24.726;2023-04-15T01:01:52;47620.94;;;-141.97;81.98
7018;BME280;3549;42.162;24.726;2023-04-15T01:04:18;47630.56;;;-141.97;81.66
7018;BME280;3549;42.162;24.726;2023-04-15T01:06:43;47607.50;;;-141.97;81.23
7018;BME280;3549;42.162;24.726;2023-04-15T01:09:09;47542.16;;;-141.97;82.16
7018;BME280;3549;42.162;24.726;2023-04-15T01:11:36;47594.03;;;-141.97;82.72
7018;BME280;3549;42.162;24.726;2023-04-15T01:14:01;47617.09;;;-141.97;83.05
7018;BME280;3549;42.162;24.726;2023-04-15T01:16:27;47619.03;;;-141.97;82.14
7018;BME280;3549;42.162;24.726;2023-04-15T01:18:53;47615.19;;;-141.97;81.83
7018;BME280;3549;42.162;24.726;2023-04-15T01:21:18;47605.56;;;-141.97;81.12
7018;BME280;3549;42.162;24.726;2023-04-15T01:23:46;47607.50;;;-141.97;80.55
7018;BME280;3549;42.162;24.726;2023-04-15T01:26:12;47653.63;;;-141.97;80.14
7018;BME280;3549;42.162;24.726;2023-04-15T01:28:38;47580.59;;;-141.97;78.63
7018;BME280;3549;42.162;24.726;2023-04-15T01:31:10;47630.56;;;-141.97;78.83
7018;BME280;3549;42.162;24.726;2023-04-15T01:33:37;47605.56;;;-141.97;78.54
7018;BME280;3549;42.162;24.726;2023-04-15T01:36:04;47620.94;;;-141.97;78.00
7018;BME280;3549;42.162;24.726;2023-04-15T01:38:31;47561.38;;;-141.97;78.17
7018;BME280;3549;42.162;24.726;2023-04-15T01:40:56;47751.66;;;-141.97;77.70
7018;BME280;3549;42.162;24.726;2023-04-15T01:43:22;47626.72;;;-141.97;77.49
7018;BME280;3549;42.162;24.726;2023-04-15T01:45:48;47634.41;;;-141.97;78.08
7018;BME280;3549;42.162;24.726;2023-04-15T01:48:13;47638.25;;;-141.97;78.75
7018;BME280;3549;42.162;24.726;2023-04-15T01:50:38;47619.03;;;-141.97;79.04
7018;BME280;3549;42.162;24.726;2023-04-15T01:53:04;47611.34;;;-141.97;79.22
7018;BME280;3549;42.162;24.726;2023-04-15T01:55:30;47563.28;;;-141.97;79.06
7018;BME280;3549;42.162;24.726;2023-04-15T01:57:56;47615.19;;;-141.97;78.28
7018;BME280;3549;42.162;24.726;2023-04-15T02:00:22;47613.25;;;-141.97;77.55
7018;BME280;3549;42.162;24.726;2023-04-15T02:02:47;47622.88;;;-141.97;77.46
7018;BME280;3549;42.162;24.726;2023-04-15T02:05:13;47609.41;;;-141.97;78.92
7018;BME280;3549;42.162;24.726;2023-04-15T02:07:41;47555.59;;;-141.97;79.26
7018;BME280;3549;42.162;24.726;2023-04-15T02:10:06;47628.63;;;-141.97;79.54
7018;BME280;3549;42.162;24.726;2023-04-15T02:12:33;47570.97;;;-141.97;78.25
7018;BME280;3549;42.162;24.726;2023-04-15T02:14:59;47642.09;;;-141.97;78.06
7018;BME280;3549;42.162;24.726;2023-04-15T02:17:24;47717.06;;;-141.97;78.22
7018;BME280;3549;42.162;24.726;2023-04-15T02:19:50;47544.06;;;-141.97;77.99
7018;BME280;3549;42.162;24.726;2023-04-15T02:22:15;47603.66;;;-141.97;77.27
7018;BME280;3549;42.162;24.726;2023-04-15T02:24:43;47595.97;;;-141.97;76.98
7018;BME280;3549;42.162;24.726;2023-04-15T02:27:09;47567.13;;;-141.97;76.63
7018;BME280;3549;42.162;24.726;2023-04-15T02:29:34;47642.09;;;-141.97;75.72
7018;BME280;3549;42.162;24.726;2023-04-15T02:32:00;47536.38;;;-141.97;75.40
7018;BME280;3549;42.162;24.726;2023-04-15T02:34:25;47742.03;;;-141.97;75.29
7018;BME280;3549;42.162;24.726;2023-04-15T02:36:51;47645.94;;;-141.97;75.06
7018;BME280;3549;42.162;24.726;2023-04-15T02:39:21;47597.88;;;-141.97;74.87
7018;BME280;3549;42.162;24.726;2023-04-15T02:41:47;47615.19;;;-141.97;74.84
7018;BME280;3549;42.162;24.726;2023-04-15T02:44:16;47603.66;;;-141.97;75.94
7018;BME280;3549;42.162;24.726;2023-04-15T02:46:47;47638.25;;;-141.97;76.47
7018;BME280;3549;42.162;24.726;2023-04-15T02:49:16;47615.19;;;-141.97;76.35
7018;BME280;3549;42.162;24.726;2023-04-15T02:51:42;47607.50;;;-141.97;76.40
7018;BME280;3549;42.162;24.726;2023-04-15T02:54:07;47622.88;;;-141.97;75.76
7018;BME280;3549;42.162;24.726;2023-04-15T02:56:33;47634.41;;;-141.97;74.90
7018;BME280;3549;42.162;24.726;2023-04-15T02:58:58;47653.63;;;-141.97;74.38
7018;BME280;3549;42.162;24.726;2023-04-15T03:01:25;47749.72;;;-141.97;72.94
7018;BME280;3549;42.162;24.726;2023-04-15T03:03:51;47526.75;;;-141.97;72.69
7018;BME280;3549;42.162;24.726;2023-04-15T03:06:16;47582.50;;;-141.97;71.99
7018;BME280;3549;42.162;24.726;2023-04-15T03:08:42;47569.06;;;-141.97;71.39
7018;BME280;3549;42.162;24.726;2023-04-15T03:11:07;47615.19;;;-141.97;72.19
7018;BME280;3549;42.162;24.726;2023-04-15T03:13:32;47578.66;;;-141.97;72.87
7018;BME280;3549;42.162;24.726;2023-04-15T03:15:58;47711.28;;;-141.97;74.46
7018;BME280;3549;42.162;24.726;2023-04-15T03:18:23;47634.41;;;-141.97;75.48
7018;BME280;3549;42.162;24.726;2023-04-15T03:20:49;47632.47;;;-141.97;77.52
7018;BME280;3549;42.162;24.726;2023-04-15T03:23:14;47611.34;;;-141.97;77.73
7018;BME280;3549;42.162;24.726;2023-04-15T03:25:40;47615.19;;;-141.97;77.29
7018;BME280;3549;42.162;24.726;2023-04-15T03:28:06;47630.56;;;-141.97;77.46
7018;BME280;3549;42.162;24.726;2023-04-15T03:30:32;47628.63;;;-141.97;76.74
7018;BME280;3549;42.162;24.726;2023-04-15T03:32:57;47649.78;;;-141.97;76.95
7018;BME280;3549;42.162;24.726;2023-04-15T03:35:23;47599.81;;;-141.97;77.41
7018;BME280;3549;42.162;24.726;2023-04-15T03:37:48;47732.44;;;-141.97;77.00
7018;BME280;3549;42.162;24.726;2023-04-15T03:40:14;47578.66;;;-141.97;77.87
7018;BME280;3549;42.162;24.726;2023-04-15T03:42:40;47722.81;;;-141.97;78.10
7018;BME280;3549;42.162;24.726;2023-04-15T03:45:06;47665.16;;;-141.97;77.85
7018;BME280;3549;42.162;24.726;2023-04-15T03:47:31;47626.72;;;-141.97;77.90
7018;BME280;3549;42.162;24.726;2023-04-15T03:49:57;47674.78;;;-141.97;77.92
7018;BME280;3549;42.162;24.726;2023-04-15T03:52:22;47472.94;;;-141.97;77.80
7018;BME280;3549;42.162;24.726;2023-04-15T03:54:48;47507.53;;;-141.97;77.50
7018;BME280;3549;42.162;24.726;2023-04-15T03:57:13;47649.78;;;-141.97;77.52
7018;BME280;3549;42.162;24.726;2023-04-15T03:59:39;47472.94;;;-141.97;78.36
7018;BME280;3549;42.162;24.726;2023-04-15T04:02:05;47549.84;;;-141.97;78.80
7018;BME280;3549;42.162;24.726;2023-04-15T04:04:31;47607.50;;;-141.97;78.43
7018;BME280;3549;42.162;24.726;2023-04-15T04:06:57;47736.28;;;-141.97;78.85
7018;BME280;3549;42.162;24.726;2023-04-15T04:09:23;47622.88;;;-141.97;77.60
7018;BME280;3549;42.162;24.726;2023-04-15T04:11:48;47578.66;;;-141.97;77.09
7018;BME280;3549;42.162;24.726;2023-04-15T04:14:13;47542.16;;;-141.97;76.54
7018;BME280;3549;42.162;24.726;2023-04-15T04:16:39;47494.09;;;-141.97;77.84
7018;BME280;3549;42.162;24.726;2023-04-15T04:19:04;47701.69;;;-141.97;78.49
7018;BME280;3549;42.162;24.726;2023-04-15T04:21:30;47630.56;;;-141.97;77.90
7018;BME280;3549;42.162;24.726;2023-04-15T04:23:58;47557.53;;;-141.97;76.75
7018;BME280;3549;42.162;24.726;2023-04-15T04:26:23;47586.34;;;-141.97;76.29
7018;BME280;3549;42.162;24.726;2023-04-15T04:28:49;47715.13;;;-141.97;75.76
7018;BME280;3549;42.162;24.726;2023-04-15T04:31:14;47724.75;;;-141.97;76.58
7018;BME280;3549;42.162;24.726;2023-04-15T04:33:40;47682.47;;;-141.97;76.40
7018;BME280;3549;42.162;24.726;2023-04-15T04:36:06;47457.56;;;-141.97;75.67
7018;BME280;3549;42.162;24.726;2023-04-15T04:38:31;47665.16;;;-141.97;75.79
7018;BME280;3549;42.162;24.726;2023-04-15T04:40:57;47649.78;;;-141.97;76.67
7018;BME280;3549;42.162;24.726;2023-04-15T04:43:22;47669.00;;;-141.97;76.83
7018;BME280;3549;42.162;24.726;2023-04-15T04:45:48;47619.03;;;-141.97;76.76
7018;BME280;3549;42.162;24.726;2023-04-15T04:48:13;47559.44;;;-141.97;75.35
7018;BME280;3549;42.162;24.726;2023-04-15T04:50:39;47711.28;;;-141.97;74.74
7018;BME280;3549;42.162;24.726;2023-04-15T04:53:04;47638.25;;;-141.97;75.19
7018;BME280;3549;42.162;24.726;2023-04-15T04:55:30;47590.19;;;-141.97;75.08
7018;BME280;3549;42.162;24.726;2023-04-15T04:57:56;47615.19;;;-141.97;75.77
7018;BME280;3549;42.162;24.726;2023-04-15T05:00:21;47597.88;;;-141.97;75.54
7018;BME280;3549;42.162;24.726;2023-04-15T05:02:47;47507.53;;;-141.97;75.40
7018;BME280;3549;42.162;24.726;2023-04-15T05:05:12;47480.63;;;-141.97;74.92
7018;BME280;3549;42.162;24.726;2023-04-15T05:07:38;47576.75;;;-141.97;74.61
7018;BME280;3549;42.162;24.726;2023-04-15T05:10:04;47465.25;;;-141.97;73.79
7018;BME280;3549;42.162;24.726;2023-04-15T05:12:30;47469.09;;;-141.97;74.44
7018;BME280;3549;42.162;24.726;2023-04-15T05:14:56;47768.94;;;-141.97;74.59
7018;BME280;3549;42.162;24.726;2023-04-15T05:17:29;47657.47;;;-141.97;74.03
7018;BME280;3549;42.162;24.726;2023-04-15T05:19:57;47497.94;;;-141.97;73.53
7018;BME280;3549;42.162;24.726;2023-04-15T05:22:23;47715.13;;;-141.97;73.89
7018;BME280;3549;42.162;24.726;2023-04-15T05:24:49;47490.25;;;-141.97;74.02
7018;BME280;3549;42.162;24.726;2023-04-15T05:27:19;47430.66;;;-141.97;73.64
7018;BME280;3549;42.162;24.726;2023-04-15T05:29:49;47467.19;;;-141.97;72.49
7018;BME280;3549;42.162;24.726;2023-04-15T05:32:15;47526.75;;;-141.97;71.32
7018;BME280;3549;42.162;24.726;2023-04-15T05:34:41;47524.84;;;-141.97;70.14
7018;BME280;3549;42.162;24.726;2023-04-15T05:37:06;47705.53;;;-141.97;71.74
7018;BME280;3549;42.162;24.726;2023-04-15T05:39:32;47569.06;;;-141.97;72.16
7018;BME280;3549;42.162;24.726;2023-04-15T05:41:58;47492.16;;;-141.97;71.56
7018;BME280;3549;42.162;24.726;2023-04-15T05:44:24;47720.91;;;-141.97;72.10
7018;BME280;3549;42.162;24.726;2023-04-15T05:46:50;47597.88;;;-141.97;72.70
7018;BME280;3549;42.162;24.726;2023-04-15T05:49:16;47572.91;;;-141.97;71.64
7018;BME280;3549;42.162;24.726;2023-04-15T05:51:41;47588.28;;;-141.97;71.20
7018;BME280;3549;42.162;24.726;2023-04-15T05:54:07;47515.22;;;-141.97;71.44
7018;BME280;3549;42.162;24.726;2023-04-15T05:56:32;47642.09;;;-141.97;71.25
7018;BME280;3549;42.162;24.726;2023-04-15T05:58:58;47669.00;;;-141.97;69.85
7018;BME280;3549;42.162;24.726;2023-04-15T06:01:23;47636.31;;;-141.97;69.46
7018;BME280;3549;42.162;24.726;2023-04-15T06:03:49;47711.28;;;-141.97;70.06
7018;BME280;3549;42.162;24.726;2023-04-15T06:06:15;47626.72;;;-141.97;69.34
7018;BME280;3549;42.162;24.726;2023-04-15T06:08:41;47659.38;;;-141.97;68.56
7018;BME280;3549;42.162;24.726;2023-04-15T06:11:06;47653.63;;;-141.97;68.66
7018;BME280;3549;42.162;24.726;2023-04-15T06:13:32;47678.63;;;-141.97;68.14
7018;BME280;3549;42.162;24.726;2023-04-15T06:15:58;47695.91;;;-141.97;67.10
7018;BME280;3549;42.162;24.726;2023-04-15T06:18:23;47749.72;;;-141.97;66.42
7018;BME280;3549;42.162;24.726;2023-04-15T06:20:49;47422.97;;;-141.97;67.38
7018;BME280;3549;42.162;24.726;2023-04-15T06:23:15;47640.16;;;-141.97;66.75
7018;BME280;3549;42.162;24.726;2023-04-15T06:25:40;47588.28;;;-141.97;66.68
7018;BME280;3549;42.162;24.726;2023-04-15T06:28:09;47611.34;;;-141.97;67.90
7018;BME280;3549;42.162;24.726;2023-04-15T06:30:35;47607.50;;;-141.97;67.07
7018;BME280;3549;42.162;24.726;2023-04-15T06:33:01;47686.31;;;-141.97;67.24
7018;BME280;3549;42.162;24.726;2023-04-15T06:35:29;47755.50;;;-141.97;67.18
7018;BME280;3549;42.162;24.726;2023-04-15T06:37:55;47742.03;;;-141.97;67.30
7018;BME280;3549;42.162;24.726;2023-04-15T06:40:20;47409.53;;;-141.97;66.44
7018;BME280;3549;42.162;24.726;2023-04-15T06:42:46;47584.44;;;-141.97;65.96
7018;BME280;3549;42.162;24.726;2023-04-15T06:45:11;47682.47;;;-141.97;66.60
7018;BME280;3549;42.162;24.726;2023-04-15T06:47:37;47488.31;;;-141.97;67.90
7018;BME280;3549;42.162;24.726;2023-04-15T06:50:03;47722.81;;;-141.97;68.01
7018;BME280;3549;42.162;24.726;2023-04-15T06:52:30;47638.25;;;-141.97;66.57
7018;BME280;3549;42.162;24.726;2023-04-15T06:54:55;47676.69;;;-141.97;65.70
7018;BME280;3549;42.162;24.726;2023-04-15T06:57:21;47780.47;;;-141.97;65.87
7018;BME280;3549;42.162;24.726;2023-04-15T06:59:50;47622.88;;;-141.97;65.88
7018;BME280;3549;42.162;24.726;2023-04-15T07:02:16;47724.75;;;-141.97;65.18
7018;BME280;3549;42.162;24.726;2023-04-15T07:04:42;47615.19;;;-141.97;64.61
7018;BME280;3549;42.162;24.726;2023-04-15T07:07:08;47484.47;;;-141.97;64.10
7018;BME280;3549;42.162;24.726;2023-04-15T07:09:33;47590.19;;;-141.97;63.35
7018;BME280;3549;42.162;24.726;2023-04-15T07:12:02;47519.06;;;-141.97;62.64
7018;BME280;3549;42.162;24.726;2023-04-15T07:14:27;47538.28;;;-141.97;61.97
7018;BME280;3549;42.162;24.726;2023-04-15T07:16:56;47730.50;;;-141.97;61.82
7018;BME280;3549;42.162;24.726;2023-04-15T07:19:22;47690.16;;;-141.97;62.90
7018;BME280;3549;42.162;24.726;2023-04-15T07:21:48;47678.63;;;-141.97;65.98
7018;BME280;3549;42.162;24.726;2023-04-15T07:24:16;47661.31;;;-141.97;66.28
7018;BME280;3549;42.162;24.726;2023-04-15T07:26:43;47745.88;;;-141.97;64.25
7018;BME280;3549;42.162;24.726;2023-04-15T07:29:09;47424.91;;;-141.97;62.85
7018;BME280;3549;42.162;24.726;2023-04-15T07:31:35;47499.84;;;-141.97;61.45
7018;BME280;3549;42.162;24.726;2023-04-15T07:34:06;47480.63;;;-141.97;61.87
7018;BME280;3549;42.162;24.726;2023-04-15T07:36:31;47496.00;;;-141.97;59.95
7018;BME280;3549;42.162;24.726;2023-04-15T07:38:59;47768.94;;;-141.97;58.74
7018;BME280;3549;42.162;24.726;2023-04-15T07:41:28;47503.69;;;-141.97;59.20
7018;BME280;3549;42.162;24.726;2023-04-15T07:43:53;47590.19;;;-141.97;57.75
7018;BME280;3549;42.162;24.726;2023-04-15T07:46:19;47676.69;;;-141.97;57.24
7018;BME280;3549;42.162;24.726;2023-04-15T07:48:44;47684.38;;;-141.97;56.75
7018;BME280;3549;42.162;24.726;2023-04-15T07:51:10;47711.28;;;-141.97;54.71
7018;BME280;3549;42.162;24.726;2023-04-15T07:53:37;47634.41;;;-141.97;52.42
7018;BME280;3549;42.162;24.726;2023-04-15T07:56:02;47357.63;;;-141.97;51.38
7018;BME280;3549;42.162;24.726;2023-04-15T07:58:28;47619.03;;;-141.97;52.04
7018;BME280;3549;42.162;24.726;2023-04-15T08:00:54;47534.44;;;-141.97;52.43
7018;BME280;3549;42.162;24.726;2023-04-15T08:03:20;47499.84;;;-141.97;53.69
7018;BME280;3549;42.162;24.726;2023-04-15T08:05:46;47442.19;;;-141.97;54.66
7018;BME280;3549;42.162;24.726;2023-04-15T08:08:14;47580.59;;;-141.97;53.46
7018;BME280;3549;42.162;24.726;2023-04-15T08:10:39;47657.47;;;-141.97;51.74
7018;BME280;3549;42.162;24.726;2023-04-15T08:13:05;47459.50;;;-141.97;51.09
7018;BME280;3549;42.162;24.726;2023-04-15T08:15:31;47542.16;;;-141.97;51.53
7018;BME280;3549;42.162;24.726;2023-04-15T08:17:57;47522.91;;;-141.97;52.53
7018;BME280;3549;42.162;24.726;2023-04-15T08:20:27;47476.78;;;-141.97;50.58
7018;BME280;3549;42.162;24.726;2023-04-15T08:22:53;47446.03;;;-141.97;49.77
7018;BME280;3549;42.162;24.726;2023-04-15T08:25:18;47672.84;;;-141.97;50.41
7018;BME280;3549;42.162;24.726;2023-04-15T08:27:47;47609.41;;;-141.97;50.71
7018;BME280;3549;42.162;24.726;2023-04-15T08:30:12;47590.19;;;-141.97;49.28
7018;BME280;3549;42.162;24.726;2023-04-15T08:32:41;47688.22;;;-141.97;49.88
7018;BME280;3549;42.162;24.726;2023-04-15T08:35:07;47522.91;;;-141.97;49.92
7018;BME280;3549;42.162;24.726;2023-04-15T08:37:34;47705.53;;;-141.97;47.49
7018;BME280;3549;42.162;24.726;2023-04-15T08:40:00;47303.81;;;-141.97;46.39
7018;BME280;3549;42.162;24.726;2023-04-15T08:42:31;47642.09;;;-141.97;46.40
7018;BME280;3549;42.162;24.726;2023-04-15T08:45:03;47726.66;;;-141.97;45.15
7018;BME280;3549;42.162;24.726;2023-04-15T08:47:30;47411.44;;;-141.97;44.02
7018;BME280;3549;42.162;24.726;2023-04-15T08:50:02;47446.03;;;-141.97;43.38
7018;BME280;3549;42.162;24.726;2023-04-15T08:52:29;47736.28;;;-141.97;42.97
7018;BME280;3549;42.162;24.726;2023-04-15T08:54:56;47709.38;;;-141.97;42.37
7018;BME280;3549;42.162;24.726;2023-04-15T08:57:25;47396.06;;;-141.97;42.69
7018;BME280;3549;42.162;24.726;2023-04-15T08:59:52;47461.41;;;-141.97;41.52
7018;BME280;3549;42.162;24.726;2023-04-15T09:02:22;47565.22;;;-141.97;40.28
7018;BME280;3549;42.162;24.726;2023-04-15T09:04:50;47522.91;;;-141.97;39.50
7018;BME280;3549;42.162;24.726;2023-04-15T09:07:16;47609.41;;;-141.97;39.57
7018;BME280;3549;42.162;24.726;2023-04-15T09:09:41;47440.28;;;-141.97;39.93
7018;BME280;3549;42.162;24.726;2023-04-15T09:12:07;47546.00;;;-141.97;39.83
7018;BME280;3549;42.162;24.726;2023-04-15T09:14:39;47446.03;;;-141.97;39.98
7018;BME280;3549;42.162;24.726;2023-04-15T09:17:10;47715.13;;;-141.97;39.44
7018;BME280;3549;42.162;24.726;2023-04-15T09:19:36;47551.75;;;-141.97;39.70
7018;BME280;3549;42.162;24.726;2023-04-15T09:22:01;47586.34;;;-141.97;39.99
7018;BME280;3549;42.162;24.726;2023-04-15T09:24:37;47476.78;;;-141.97;40.46
7018;BME280;3549;42.162;24.726;2023-04-15T09:27:04;47547.91;;;-141.97;39.89
7018;BME280;3549;42.162;24.726;2023-04-15T09:29:30;47463.34;;;-141.97;38.91
7018;BME280;3549;42.162;24.726;2023-04-15T09:32:10;47690.16;;;-141.97;39.40
7018;BME280;3549;42.162;24.726;2023-04-15T09:34:42;47419.13;;;-141.97;38.69
7018;BME280;3549;42.162;24.726;2023-04-15T09:37:08;47384.53;;;-141.97;39.70
7018;BME280;3549;42.162;24.726;2023-04-15T09:39:49;47522.91;;;-141.97;38.94
7018;BME280;3549;42.162;24.726;2023-04-15T09:42:18;47601.72;;;-141.97;38.09
7018;BME280;3549;42.162;24.726;2023-04-15T09:44:49;47676.69;;;-141.97;38.09
7018;BME280;3549;42.162;24.726;2023-04-15T09:47:29;47497.94;;;-141.97;37.70
7018;BME280;3549;42.162;24.726;2023-04-15T09:49:59;47592.13;;;-141.97;38.15
7018;BME280;3549;42.162;24.726;2023-04-15T09:52:25;47461.41;;;-141.97;37.83
7018;BME280;3549;42.162;24.726;2023-04-15T09:54:56;47344.19;;;-141.97;36.90
7018;BME280;3549;42.162;24.726;2023-04-15T09:57:22;47453.72;;;-141.97;36.76
7018;BME280;3549;42.162;24.726;2023-04-15T09:59:49;47311.50;;;-141.97;36.49
7018;BME280;3549;42.162;24.726;2023-04-15T10:02:14;47307.66;;;-141.97;35.30
7018;BME280;3549;42.162;24.726;2023-04-15T10:04:43;47442.19;;;-141.97;36.33
7018;BME280;3549;42.162;24.726;2023-04-15T10:07:11;47544.06;;;-141.97;36.54
7018;BME280;3549;42.162;24.726;2023-04-15T10:09:38;47342.25;;;-141.97;36.69
7018;BME280;3549;42.162;24.726;2023-04-15T10:12:04;47472.94;;;-141.97;35.54
7018;BME280;3549;42.162;24.726;2023-04-15T10:14:34;47332.66;;;-141.97;34.96
7018;BME280;3549;42.162;24.726;2023-04-15T10:17:04;47292.28;;;-141.97;34.23
7018;BME280;3549;42.162;24.726;2023-04-15T10:19:35;47519.06;;;-141.97;34.53
7018;BME280;3549;42.162;24.726;2023-04-15T10:22:02;47357.63;;;-141.97;34.91
7018;BME280;3549;42.162;24.726;2023-04-15T10:24:27;47315.34;;;-141.97;35.21
7018;BME280;3549;42.162;24.726;2023-04-15T10:26:59;47461.41;;;-141.97;34.59
7018;BME280;3549;42.162;24.726;2023-04-15T10:29:25;47444.13;;;-141.97;34.25
7018;BME280;3549;42.162;24.726;2023-04-15T10:32:00;47511.38;;;-141.97;34.07
7018;BME280;3549;42.162;24.726;2023-04-15T10:34:28;47544.06;;;-141.97;33.85
7018;BME280;3549;42.162;24.726;2023-04-15T10:36:55;47653.63;;;-141.97;33.93
7018;BME280;3549;42.162;24.726;2023-04-15T10:42:06;47538.28;;;-141.97;33.73
7018;BME280;3549;42.162;24.726;2023-04-15T10:44:31;47530.59;;;-141.97;35.60
7018;BME280;3549;42.162;24.726;2023-04-15T10:46:57;47284.59;;;-141.97;35.63
7018;BME280;3549;42.162;24.726;2023-04-15T10:49:26;47349.94;;;-141.97;35.34
7018;BME280;3549;42.162;24.726;2023-04-15T10:51:57;47642.09;;;-141.97;35.87
7018;BME280;3549;42.162;24.726;2023-04-15T10:59:34;47315.34;;;-141.97;36.32
7018;BME280;3549;42.162;24.726;2023-04-15T11:02:05;47307.66;;;-141.97;35.63
7018;BME280;3549;42.162;24.726;2023-04-15T11:04:56;47490.25;;;-141.97;36.18
7018;BME280;3549;42.162;24.726;2023-04-15T11:12:55;47722.81;;;-141.97;35.70
7018;BME280;3549;42.162;24.726;2023-04-15T11:15:42;47499.84;;;-141.97;35.50
7018;BME280;3549;42.162;24.726;2023-04-15T11:20:42;47278.84;;;-141.97;34.74
7018;BME280;3549;42.162;24.726;2023-04-15T11:23:12;47359.56;;;-141.97;34.21
7018;BME280;3549;42.162;24.726;2023-04-15T11:25:38;47315.34;;;-141.97;33.82
7018;BME280;3549;42.162;24.726;2023-04-15T11:28:04;47670.91;;;-141.97;34.47
7018;BME280;3549;42.162;24.726;2023-04-15T11:30:32;47501.78;;;-141.97;34.91
7018;BME280;3549;42.162;24.726;2023-04-15T11:33:03;47538.28;;;-141.97;35.07
7018;BME280;3549;42.162;24.726;2023-04-15T11:35:33;47519.06;;;-141.97;34.45
7018;BME280;3549;42.162;24.726;2023-04-15T11:38:07;47273.06;;;-141.97;33.93
7018;BME280;3549;42.162;24.726;2023-04-15T11:40:33;47482.56;;;-141.97;33.74
7018;BME280;3549;42.162;24.726;2023-04-15T11:43:19;47446.03;;;-141.97;33.27
7018;BME280;3549;42.162;24.726;2023-04-15T11:45:57;47549.84;;;-141.97;32.99
7018;BME280;3549;42.162;24.726;2023-04-15T11:48:28;47503.69;;;-141.97;32.30
7018;BME280;3549;42.162;24.726;2023-04-15T11:50:55;47490.25;;;-141.97;31.30
7018;BME280;3549;42.162;24.726;2023-04-15T11:53:22;47307.66;;;-141.97;30.81
7018;BME280;3549;42.162;24.726;2023-04-15T11:55:50;47428.75;;;-141.97;30.48
7018;BME280;3549;42.162;24.726;2023-04-15T11:58:24;47359.56;;;-141.97;30.09
7018;BME280;3549;42.162;24.726;2023-04-15T12:00:57;47496.00;;;-141.97;29.28
7018;BME280;3549;42.162;24.726;2023-04-15T12:03:36;47595.97;;;-141.97;28.32
7018;BME280;3549;42.162;24.726;2023-04-15T12:08:57;47155.84;;;-141.97;27.86
7018;BME280;3549;42.162;24.726;2023-04-15T12:14:01;47599.81;;;-141.97;27.97
7018;BME280;3549;42.162;24.726;2023-04-15T12:16:28;47451.81;;;-141.97;28.81
7018;BME280;3549;42.162;24.726;2023-04-15T12:18:56;47471.03;;;-141.97;29.83
7018;BME280;3549;42.162;24.726;2023-04-15T12:21:24;47311.50;;;-141.97;30.68
7018;BME280;3549;42.162;24.726;2023-04-15T12:23:51;47603.66;;;-141.97;31.33
7018;BME280;3549;42.162;24.726;2023-04-15T12:26:17;47461.41;;;-141.97;29.91
7018;BME280;3549;42.162;24.726;2023-04-15T12:29:07;47276.91;;;-141.97;29.71
7018;BME280;3549;42.162;24.726;2023-04-15T12:31:34;47355.72;;;-141.97;29.41
7018;BME280;3549;42.162;24.726;2023-04-15T12:34:01;47382.63;;;-141.97;29.52
7018;BME280;3549;42.162;24.726;2023-04-15T12:36:27;47348.03;;;-141.97;31.55
7018;BME280;3549;42.162;24.726;2023-04-15T12:38:55;47353.78;;;-141.97;32.42
7018;BME280;3549;42.162;24.726;2023-04-15T12:41:21;47494.09;;;-141.97;31.93
7018;BME280;3549;42.162;24.726;2023-04-15T12:43:48;47467.19;;;-141.97;31.28
7018;BME280;3549;42.162;24.726;2023-04-15T12:46:14;47392.22;;;-141.97;32.51
7018;BME280;3549;42.162;24.726;2023-04-15T12:48:40;47486.41;;;-141.97;32.81
7018;BME280;3549;42.162;24.726;2023-04-15T12:51:05;47695.91;;;-141.97;33.83
7018;BME280;3549;42.162;24.726;2023-04-15T12:53:31;47407.59;;;-141.97;34.34
7018;BME280;3549;42.162;24.726;2023-04-15T12:55:56;47280.75;;;-141.97;34.12
7018;BME280;3549;42.162;24.726;2023-04-15T12:58:22;47480.63;;;-141.97;33.94
7018;BME280;3549;42.162;24.726;2023-04-15T13:00:47;47428.75;;;-141.97;32.73
7018;BME280;3549;42.162;24.726;2023-04-15T13:03:13;47342.25;;;-141.97;33.81
7018;BME280;3549;42.162;24.726;2023-04-15T13:05:39;47701.69;;;-141.97;34.71
7018;BME280;3549;42.162;24.726;2023-04-15T13:08:05;47384.53;;;-141.97;35.41
7018;BME280;3549;42.162;24.726;2023-04-15T13:10:31;47365.31;;;-141.97;36.05